Time;durP1;ratioP1;P1;durP2;ratioP2;P2;SDS_P1;SDS_P2;PMS_P1;PMS_P2;Temp;Humidity;BMP_temperature;BMP_pressure;BME280_temperature;BME280_humidity;BME280_pressure;Samples;Min_cycle;Max_cycle;Signal;HPM_P1;HPM_P2
2023/03/30 00:01:02;;;;;;;;;;;5.20;63.80;;;;;;5105359;27;88871;-39
2023/03/30 00:03:27;;;;;;;;;;;5.20;63.80;;;;;;5101821;27;88130;-39
2023/03/30 00:05:57;;;;;;;;;;;5.20;63.80;;;;;;5102747;27;88325;-39
2023/03/30 00:08:27;;;;;;;;;;;5.20;64.40;;;;;;5102150;27;88260;-39
2023/03/30 00:11:02;;;;;;;;;;;5.10;63.90;;;;;;5098885;27;87069;-39
2023/03/30 00:13:28;;;;;;;;;;;5.20;63.90;;;;;;5104040;27;88967;-39
2023/03/30 00:15:54;;;;;;;;;;;5.10;63.90;;;;;;5105806;27;89423;-39
2023/03/30 00:18:20;;;;;;;;;;;5.10;63.90;;;;;;5102272;27;87051;-39
2023/03/30 00:20:49;;;;;;;;;;;5.10;63.90;;;;;;5106430;27;88748;-39
2023/03/30 00:23:15;;;;;;;;;;;5.10;64.00;;;;;;5108322;27;88147;-39
2023/03/30 00:25:41;;;;;;;;;;;5.10;63.90;;;;;;5106113;27;87821;-39
2023/03/30 00:28:06;;;;;;;;;;;5.10;63.90;;;;;;5105026;27;90900;-39
2023/03/30 00:30:32;;;;;;;;;;;5.10;63.90;;;;;;5104488;27;87262;-39
2023/03/30 00:32:57;;;;;;;;;;;5.10;63.90;;;;;;5106341;27;88725;-39
2023/03/30 00:35:25;;;;;;;;;;;5.10;63.90;;;;;;5105519;27;89413;-39
2023/03/30 00:37:51;;;;;;;;;;;5.10;64.00;;;;;;5105770;27;87121;-39
2023/03/30 00:40:20;;;;;;;;;;;5.10;64.00;;;;;;5105634;27;88539;-39
2023/03/30 00:42:46;;;;;;;;;;;5.10;64.00;;;;;;5105234;27;88294;-39
2023/03/30 00:45:11;;;;;;;;;;;5.10;64.10;;;;;;5109209;27;86808;-39
2023/03/30 00:47:39;;;;;;;;;;;5.10;64.10;;;;;;5105795;27;89437;-39
2023/03/30 00:50:06;;;;;;;;;;;5.10;64.10;;;;;;5105566;27;87181;-39
2023/03/30 00:52:32;;;;;;;;;;;5.10;64.00;;;;;;5104990;27;89110;-39
2023/03/30 00:54:58;;;;;;;;;;;5.10;64.00;;;;;;5105349;27;89704;-39
2023/03/30 00:57:24;;;;;;;;;;;5.10;64.10;;;;;;5105634;27;87207;-39
2023/03/30 00:59:51;;;;;;;;;;;5.10;64.10;;;;;;5105763;27;87387;-39
2023/03/30 01:02:17;;;;;;;;;;;5.10;64.20;;;;;;5104711;27;89298;-39
2023/03/30 01:04:44;;;;;;;;;;;5.10;64.10;;;;;;5105382;27;86981;-39
2023/03/30 01:07:12;;;;;;;;;;;5.10;64.20;;;;;;5107982;27;87823;-39
2023/03/30 01:09:39;;;;;;;;;;;5.10;64.30;;;;;;5101882;27;86400;-39
2023/03/30 01:12:05;;;;;;;;;;;5.10;64.20;;;;;;5105672;27;87995;-39
2023/03/30 01:14:31;;;;;;;;;;;5.10;64.20;;;;;;5104531;27;89485;-39
2023/03/30 01:17:00;;;;;;;;;;;5.10;64.20;;;;;;5104437;27;88017;-39
2023/03/30 01:19:28;;;;;;;;;;;5.10;64.20;;;;;;5105046;27;89517;-39
2023/03/30 01:22:00;;;;;;;;;;;5.10;64.20;;;;;;5100785;27;89362;-39
2023/03/30 01:24:28;;;;;;;;;;;5.10;64.10;;;;;;5105068;27;87435;-39
2023/03/30 01:26:58;;;;;;;;;;;5.10;64.20;;;;;;5107920;27;88711;-39
2023/03/30 01:29:53;;;;;;;;;;;5.10;64.20;;;;;;5105256;27;87409;-38
2023/03/30 01:32:18;;;;;;;;;;;5.00;64.30;;;;;;5090433;27;88550;-39
2023/03/30 01:34:45;;;;;;;;;;;5.10;64.30;;;;;;5105455;27;87182;-39
2023/03/30 01:37:28;;;;;;;;;;;5.00;64.30;;;;;;5105070;27;87071;-39
2023/03/30 01:39:54;;;;;;;;;;;5.10;64.30;;;;;;5097934;27;88724;-39
2023/03/30 01:42:43;;;;;;;;;;;5.00;64.30;;;;;;5099588;27;90494;-39
2023/03/30 01:45:12;;;;;;;;;;;5.00;64.40;;;;;;5103066;27;87004;-39
2023/03/30 01:47:50;;;;;;;;;;;5.00;64.40;;;;;;5104774;27;88774;-39
2023/03/30 01:50:23;;;;;;;;;;;5.10;64.50;;;;;;5104766;27;88059;-39
2023/03/30 01:52:54;;;;;;;;;;;5.10;64.50;;;;;;5104122;27;87581;-39
2023/03/30 01:55:24;;;;;;;;;;;5.00;64.50;;;;;;5100681;27;88022;-39
2023/03/30 01:57:54;;;;;;;;;;;5.00;64.50;;;;;;5104456;27;87060;-39
2023/03/30 02:00:21;;;;;;;;;;;5.00;64.50;;;;;;5104783;27;89003;-39
2023/03/30 02:02:48;;;;;;;;;;;5.00;64.40;;;;;;5103950;27;88054;-39
2023/03/30 02:05:16;;;;;;;;;;;5.10;64.50;;;;;;5104184;27;87082;-39
2023/03/30 02:07:43;;;;;;;;;;;5.00;64.60;;;;;;5103497;27;88829;-39
2023/03/30 02:10:10;;;;;;;;;;;5.00;64.50;;;;;;5104172;27;88605;-39
2023/03/30 02:12:37;;;;;;;;;;;5.00;64.50;;;;;;5107160;27;87117;-39
2023/03/30 02:15:06;;;;;;;;;;;5.00;64.50;;;;;;5103766;27;88043;-39
2023/03/30 02:17:32;;;;;;;;;;;5.00;64.50;;;;;;5104427;27;87109;-39
2023/03/30 02:19:58;;;;;;;;;;;5.00;64.60;;;;;;5104167;27;87366;-39
2023/03/30 02:22:25;;;;;;;;;;;5.00;64.50;;;;;;5103526;27;89605;-39
2023/03/30 02:24:53;;;;;;;;;;;5.00;64.60;;;;;;5104293;27;86715;-39
2023/03/30 02:27:20;;;;;;;;;;;5.00;64.70;;;;;;5100207;27;87218;-39
2023/03/30 02:29:45;;;;;;;;;;;5.00;64.70;;;;;;5103814;27;88635;-39
2023/03/30 02:32:17;;;;;;;;;;;5.00;64.70;;;;;;5103278;27;88084;-38
2023/03/30 02:34:58;;;;;;;;;;;5.00;64.80;;;;;;5106638;27;89819;-39
2023/03/30 02:37:32;;;;;;;;;;;5.00;64.70;;;;;;5101640;27;87004;-39
2023/03/30 02:40:17;;;;;;;;;;;5.00;64.70;;;;;;5104238;27;88708;-39
2023/03/30 02:43:02;;;;;;;;;;;5.00;64.80;;;;;;5103312;27;89464;-39
2023/03/30 02:45:33;;;;;;;;;;;5.00;64.70;;;;;;5101906;27;87126;-39
2023/03/30 02:48:18;;;;;;;;;;;5.00;64.80;;;;;;5103965;27;88814;-39
2023/03/30 02:50:49;;;;;;;;;;;5.00;64.80;;;;;;5104272;27;88447;-39
2023/03/30 02:53:35;;;;;;;;;;;5.00;64.80;;;;;;5100108;27;87346;-39
2023/03/30 02:56:18;;;;;;;;;;;5.00;64.90;;;;;;5095033;27;89423;-39
2023/03/30 02:59:01;;;;;;;;;;;5.00;64.70;;;;;;5105840;27;90552;-39
2023/03/30 03:01:36;;;;;;;;;;;5.00;64.80;;;;;;5101780;27;88809;-39
2023/03/30 03:04:03;;;;;;;;;;;4.90;64.80;;;;;;5099305;27;89579;-39
2023/03/30 03:06:31;;;;;;;;;;;5.00;64.80;;;;;;5103716;27;87486;-39
2023/03/30 03:08:56;;;;;;;;;;;4.90;64.90;;;;;;5103427;27;87358;-39
2023/03/30 03:11:22;;;;;;;;;;;5.00;64.90;;;;;;5103239;27;89273;-39
2023/03/30 03:13:47;;;;;;;;;;;5.00;65.00;;;;;;5102872;27;87282;-39
2023/03/30 03:16:13;;;;;;;;;;;4.90;65.00;;;;;;5100100;27;88838;-39
2023/03/30 03:18:40;;;;;;;;;;;4.90;65.50;;;;;;5102762;27;89422;-39
2023/03/30 03:21:06;;;;;;;;;;;5.00;64.90;;;;;;5106013;27;87070;-39
2023/03/30 03:23:32;;;;;;;;;;;4.90;64.90;;;;;;5102163;27;88956;-39
2023/03/30 03:25:59;;;;;;;;;;;4.90;64.90;;;;;;5103225;27;86949;-39
2023/03/30 03:28:24;;;;;;;;;;;4.90;64.90;;;;;;5103511;27;88929;-39
2023/03/30 03:30:50;;;;;;;;;;;4.90;64.90;;;;;;5102610;27;89688;-39
2023/03/30 03:33:16;;;;;;;;;;;4.90;64.90;;;;;;5103285;27;87432;-39
2023/03/30 03:35:44;;;;;;;;;;;4.90;65.00;;;;;;5103023;27;88493;-39
2023/03/30 03:38:10;;;;;;;;;;;4.90;65.00;;;;;;5102438;27;89639;-39
2023/03/30 03:40:36;;;;;;;;;;;4.90;65.00;;;;;;5106229;27;86480;-39
2023/03/30 03:43:01;;;;;;;;;;;4.90;65.00;;;;;;5102444;27;89493;-39
2023/03/30 03:45:27;;;;;;;;;;;4.90;65.10;;;;;;5102666;27;87159;-39
2023/03/30 03:47:52;;;;;;;;;;;4.90;65.00;;;;;;5101146;27;87936;-39
2023/03/30 03:50:18;;;;;;;;;;;4.90;65.00;;;;;;5102707;27;88264;-39
2023/03/30 03:52:43;;;;;;;;;;;4.90;65.10;;;;;;5102695;27;87147;-39
2023/03/30 03:55:09;;;;;;;;;;;4.90;65.10;;;;;;5102532;27;88724;-39
2023/03/30 03:57:35;;;;;;;;;;;4.90;65.10;;;;;;5102314;27;89399;-39
2023/03/30 04:00:02;;;;;;;;;;;4.90;65.20;;;;;;5102724;27;87127;-39
2023/03/30 04:02:27;;;;;;;;;;;4.90;65.10;;;;;;5105102;27;88764;-39
2023/03/30 04:04:53;;;;;;;;;;;4.90;65.10;;;;;;5103221;27;86408;-39
2023/03/30 04:07:18;;;;;;;;;;;4.90;65.20;;;;;;5102669;27;88235;-39
2023/03/30 04:09:44;;;;;;;;;;;4.90;65.10;;;;;;5102069;27;89207;-39
2023/03/30 04:12:10;;;;;;;;;;;4.90;65.10;;;;;;5101439;27;88130;-39
2023/03/30 04:14:35;;;;;;;;;;;4.90;65.20;;;;;;5101941;27;89718;-39
2023/03/30 04:17:01;;;;;;;;;;;4.80;65.20;;;;;;5101516;27;89486;-39
2023/03/30 04:19:30;;;;;;;;;;;4.90;65.20;;;;;;5102093;27;87214;-39
2023/03/30 04:21:57;;;;;;;;;;;4.90;65.30;;;;;;5102089;27;88889;-39
2023/03/30 04:24:24;;;;;;;;;;;4.90;65.20;;;;;;5104580;27;89381;-39
2023/03/30 04:26:50;;;;;;;;;;;4.90;65.20;;;;;;5102423;27;86990;-39
2023/03/30 04:29:16;;;;;;;;;;;4.90;65.10;;;;;;5101983;27;89311;-39
2023/03/30 04:31:45;;;;;;;;;;;4.90;65.20;;;;;;5101928;27;87587;-39
2023/03/30 04:34:11;;;;;;;;;;;4.90;65.20;;;;;;5102119;27;87817;-39
2023/03/30 04:36:37;;;;;;;;;;;4.80;65.20;;;;;;5100918;27;90643;-39
2023/03/30 04:39:05;;;;;;;;;;;4.90;65.20;;;;;;5102001;27;87184;-39
2023/03/30 04:41:34;;;;;;;;;;;4.90;65.80;;;;;;5101819;27;88788;-39
2023/03/30 04:44:04;;;;;;;;;;;4.90;65.20;;;;;;5101491;27;87186;-39
2023/03/30 04:46:30;;;;;;;;;;;4.90;65.20;;;;;;5104582;27;87165;-39
2023/03/30 04:48:55;;;;;;;;;;;4.90;65.20;;;;;;5101583;27;89572;-39
2023/03/30 04:51:21;;;;;;;;;;;4.90;65.20;;;;;;5101865;27;87092;-39
2023/03/30 04:53:47;;;;;;;;;;;4.80;65.30;;;;;;5102326;27;88924;-39
2023/03/30 04:56:12;;;;;;;;;;;4.80;65.40;;;;;;5101194;27;89492;-39
2023/03/30 04:58:38;;;;;;;;;;;4.80;65.40;;;;;;5102276;27;87151;-39
2023/03/30 05:01:03;;;;;;;;;;;4.90;65.30;;;;;;5104823;27;88169;-39
2023/03/30 05:03:29;;;;;;;;;;;4.80;65.40;;;;;;5105447;27;88664;-39
2023/03/30 05:05:55;;;;;;;;;;;4.90;65.40;;;;;;5105461;27;87160;-39
2023/03/30 05:08:21;;;;;;;;;;;4.90;65.30;;;;;;5107936;27;88834;-39
2023/03/30 05:10:47;;;;;;;;;;;4.80;65.30;;;;;;5105215;27;87084;-39
2023/03/30 05:13:12;;;;;;;;;;;4.90;65.30;;;;;;5104428;27;89042;-39
2023/03/30 05:15:38;;;;;;;;;;;4.90;65.30;;;;;;5104864;27;89901;-39
2023/03/30 05:18:04;;;;;;;;;;;4.90;65.30;;;;;;5105538;27;86851;-39
2023/03/30 05:20:30;;;;;;;;;;;4.80;65.40;;;;;;5104870;27;87992;-39
2023/03/30 05:22:55;;;;;;;;;;;4.80;65.40;;;;;;5104904;27;89705;-39
2023/03/30 05:25:21;;;;;;;;;;;4.80;65.30;;;;;;5104420;27;88015;-39
2023/03/30 05:27:46;;;;;;;;;;;4.80;65.40;;;;;;5107485;27;89862;-39
2023/03/30 05:30:12;;;;;;;;;;;4.80;65.30;;;;;;5105101;27;87199;-39
2023/03/30 05:32:38;;;;;;;;;;;4.90;65.40;;;;;;5104626;27;88925;-39
2023/03/30 05:35:03;;;;;;;;;;;4.80;65.30;;;;;;5104548;27;88083;-39
2023/03/30 05:37:29;;;;;;;;;;;4.90;65.40;;;;;;5105020;27;87422;-39
2023/03/30 05:39:54;;;;;;;;;;;4.90;65.50;;;;;;5105199;27;86996;-39
2023/03/30 05:42:20;;;;;;;;;;;4.80;65.50;;;;;;5105051;27;89180;-39
2023/03/30 05:44:46;;;;;;;;;;;4.80;65.50;;;;;;5104722;27;87027;-39
2023/03/30 05:47:11;;;;;;;;;;;4.80;65.50;;;;;;5105010;27;87183;-39
2023/03/30 05:49:37;;;;;;;;;;;4.80;65.40;;;;;;5102825;27;89064;-39
2023/03/30 05:52:02;;;;;;;;;;;4.80;65.50;;;;;;5104996;27;88733;-39
2023/03/30 05:54:28;;;;;;;;;;;4.80;65.50;;;;;;5100581;27;87758;-39
2023/03/30 05:56:53;;;;;;;;;;;4.80;65.50;;;;;;5104345;27;87058;-39
2023/03/30 05:59:20;;;;;;;;;;;4.80;65.60;;;;;;5104556;27;88501;-39
2023/03/30 06:01:46;;;;;;;;;;;4.80;65.60;;;;;;5103954;27;89236;-39
2023/03/30 06:04:12;;;;;;;;;;;4.80;65.50;;;;;;5104298;27;87124;-39
2023/03/30 06:06:37;;;;;;;;;;;4.80;65.50;;;;;;5104938;27;89293;-39
2023/03/30 06:09:03;;;;;;;;;;;4.80;65.50;;;;;;5103811;27;89052;-39
2023/03/30 06:11:30;;;;;;;;;;;4.80;65.50;;;;;;5106196;27;87091;-39
2023/03/30 06:13:56;;;;;;;;;;;4.80;65.50;;;;;;5102908;27;90368;-39
2023/03/30 06:16:22;;;;;;;;;;;4.90;65.50;;;;;;5104091;27;86974;-39
2023/03/30 06:18:47;;;;;;;;;;;4.90;65.50;;;;;;5104060;27;88828;-39
2023/03/30 06:21:13;;;;;;;;;;;4.90;65.50;;;;;;5103664;27;89662;-39
2023/03/30 06:23:40;;;;;;;;;;;4.90;65.50;;;;;;5103962;27;87136;-39
2023/03/30 06:26:06;;;;;;;;;;;4.90;65.50;;;;;;5104695;27;87068;-39
2023/03/30 06:28:32;;;;;;;;;;;4.90;65.50;;;;;;5103616;27;89331;-39
2023/03/30 06:31:00;;;;;;;;;;;4.90;65.50;;;;;;5104887;27;86393;-39
2023/03/30 06:33:26;;;;;;;;;;;4.90;65.50;;;;;;5106878;27;88275;-39
2023/03/30 06:35:53;;;;;;;;;;;4.90;65.50;;;;;;5104237;27;87084;-39
2023/03/30 06:38:19;;;;;;;;;;;4.90;65.50;;;;;;5102580;27;89539;-39
2023/03/30 06:40:44;;;;;;;;;;;4.90;65.50;;;;;;5103766;27;88347;-39
2023/03/30 06:43:30;;;;;;;;;;;4.90;65.40;;;;;;5104121;27;87179;-39
2023/03/30 06:45:56;;;;;;;;;;;4.90;65.40;;;;;;5093452;27;88455;-39
2023/03/30 06:48:22;;;;;;;;;;;4.90;65.50;;;;;;5102893;27;89623;-39
2023/03/30 06:50:48;;;;;;;;;;;4.90;65.40;;;;;;5103641;27;87140;-40
2023/03/30 06:53:14;;;;;;;;;;;4.90;65.60;;;;;;5103911;27;88985;-39
2023/03/30 06:55:40;;;;;;;;;;;4.90;65.50;;;;;;5106982;27;88479;-39
2023/03/30 06:58:06;;;;;;;;;;;4.90;65.40;;;;;;5104036;27;87971;-39
2023/03/30 07:00:31;;;;;;;;;;;4.90;65.50;;;;;;5103648;27;89462;-39
2023/03/30 07:02:57;;;;;;;;;;;4.90;65.60;;;;;;5102834;27;88114;-39
2023/03/30 07:05:23;;;;;;;;;;;4.90;65.60;;;;;;5103484;27;89554;-39
2023/03/30 07:07:49;;;;;;;;;;;4.90;65.50;;;;;;5103340;27;89302;-39
2023/03/30 07:10:15;;;;;;;;;;;5.00;65.40;;;;;;5103790;27;87125;-39
2023/03/30 07:12:41;;;;;;;;;;;5.00;65.40;;;;;;5103225;27;88861;-39
2023/03/30 07:15:07;;;;;;;;;;;5.00;65.30;;;;;;5102503;27;88017;-39
2023/03/30 07:17:33;;;;;;;;;;;5.00;65.40;;;;;;5106309;27;87138;-39
2023/03/30 07:19:59;;;;;;;;;;;5.00;65.40;;;;;;5103717;27;89152;-39
2023/03/30 07:22:25;;;;;;;;;;;5.00;65.40;;;;;;5102791;27;87530;-39
2023/03/30 07:24:50;;;;;;;;;;;5.00;65.60;;;;;;5103459;27;88672;-39
2023/03/30 07:27:16;;;;;;;;;;;5.00;65.50;;;;;;5102457;27;90015;-39
2023/03/30 07:29:41;;;;;;;;;;;4.90;65.40;;;;;;5103417;27;87077;-39
2023/03/30 07:32:07;;;;;;;;;;;5.00;65.60;;;;;;5103916;27;87397;-39
2023/03/30 07:34:33;;;;;;;;;;;5.00;65.60;;;;;;5102785;27;89392;-39
2023/03/30 07:37:00;;;;;;;;;;;5.00;65.70;;;;;;5106057;27;87073;-39
2023/03/30 07:39:26;;;;;;;;;;;5.00;65.80;;;;;;5102892;27;89334;-39
2023/03/30 07:41:52;;;;;;;;;;;5.00;65.60;;;;;;5102790;27;87412;-39
2023/03/30 07:44:17;;;;;;;;;;;5.00;65.60;;;;;;5103790;27;87581;-39
2023/03/30 07:46:43;;;;;;;;;;;5.00;65.70;;;;;;5103136;27;87521;-39
2023/03/30 07:49:09;;;;;;;;;;;5.00;65.60;;;;;;5103098;27;87094;-39
2023/03/30 07:51:34;;;;;;;;;;;5.00;65.80;;;;;;5102156;27;88679;-39
2023/03/30 07:54:00;;;;;;;;;;;5.00;65.70;;;;;;5102172;27;89346;-39
2023/03/30 07:56:26;;;;;;;;;;;5.00;65.90;;;;;;5102222;27;87509;-39
2023/03/30 07:58:51;;;;;;;;;;;5.10;65.90;;;;;;5104984;27;88907;-39
2023/03/30 08:01:17;;;;;;;;;;;5.00;65.80;;;;;;5102398;27;87082;-39
2023/03/30 08:03:43;;;;;;;;;;;5.00;65.80;;;;;;5102038;27;88717;-39
2023/03/30 08:06:09;;;;;;;;;;;5.00;65.80;;;;;;5101845;27;87994;-39
2023/03/30 08:08:37;;;;;;;;;;;5.00;65.70;;;;;;5102933;27;86843;-39
2023/03/30 08:11:03;;;;;;;;;;;5.00;65.90;;;;;;5102241;27;88006;-39
2023/03/30 08:13:31;;;;;;;;;;;5.00;66.00;;;;;;5097936;27;89649;-39
2023/03/30 08:15:57;;;;;;;;;;;5.00;66.00;;;;;;5102101;27;88114;-38
2023/03/30 08:18:22;;;;;;;;;;;5.00;66.00;;;;;;5102430;27;89654;-39
2023/03/30 08:20:49;;;;;;;;;;;5.10;66.00;;;;;;5104901;27;89745;-39
2023/03/30 08:23:15;;;;;;;;;;;5.00;66.10;;;;;;5102645;27;88830;-39
2023/03/30 08:25:41;;;;;;;;;;;5.00;66.00;;;;;;5101675;27;89261;-39
2023/03/30 08:28:06;;;;;;;;;;;5.10;66.10;;;;;;5102877;27;87604;-39
2023/03/30 08:30:32;;;;;;;;;;;5.10;66.00;;;;;;5102885;27;87331;-39
2023/03/30 08:32:57;;;;;;;;;;;5.10;66.00;;;;;;5102487;27;88819;-39
2023/03/30 08:35:23;;;;;;;;;;;5.10;66.10;;;;;;5105151;27;87163;-39
2023/03/30 08:37:49;;;;;;;;;;;5.00;66.10;;;;;;5105681;27;88655;-39
2023/03/30 08:40:14;;;;;;;;;;;5.10;66.20;;;;;;5105050;27;90730;-39
2023/03/30 08:42:43;;;;;;;;;;;5.10;66.20;;;;;;5107701;27;87263;-39
2023/03/30 08:45:10;;;;;;;;;;;5.10;66.20;;;;;;5105410;27;89252;-39
2023/03/30 08:47:38;;;;;;;;;;;5.10;66.80;;;;;;5105965;27;87450;-39
2023/03/30 08:50:05;;;;;;;;;;;5.10;66.00;;;;;;5105935;27;88616;-39
2023/03/30 08:52:32;;;;;;;;;;;5.10;66.00;;;;;;5105527;27;89270;-39
2023/03/30 08:54:58;;;;;;;;;;;5.20;66.10;;;;;;5105726;27;87621;-39
2023/03/30 08:57:50;;;;;;;;;;;5.20;66.00;;;;;;5106399;27;88937;-39
2023/03/30 09:00:20;;;;;;;;;;;5.20;66.00;;;;;;5104630;27;89331;-39
2023/03/30 09:02:51;;;;;;;;;;;5.20;66.00;;;;;;5101617;27;87097;-39
2023/03/30 09:05:26;;;;;;;;;;;5.30;66.00;;;;;;5107228;27;88900;-39
2023/03/30 09:07:56;;;;;;;;;;;5.30;66.00;;;;;;5105110;27;87480;-39
2023/03/30 09:10:23;;;;;;;;;;;5.30;66.10;;;;;;5105073;27;89731;-39
2023/03/30 09:12:56;;;;;;;;;;;5.30;65.90;;;;;;5104517;27;89166;-39
2023/03/30 09:15:24;;;;;;;;;;;5.30;66.00;;;;;;5105116;27;87035;-39
2023/03/30 09:17:59;;;;;;;;;;;5.40;65.90;;;;;;5104799;27;88858;-39
2023/03/30 09:20:27;;;;;;;;;;;5.40;65.80;;;;;;5104656;27;89500;-39
2023/03/30 09:22:53;;;;;;;;;;;5.40;65.80;;;;;;5105369;27;86427;-39
2023/03/30 09:25:22;;;;;;;;;;;5.40;65.70;;;;;;5104730;27;88159;-39
2023/03/30 09:27:48;;;;;;;;;;;5.40;65.90;;;;;;5107419;27;89322;-39
2023/03/30 09:30:18;;;;;;;;;;;5.40;65.90;;;;;;5104206;27;89302;-39
2023/03/30 09:32:56;;;;;;;;;;;5.40;65.80;;;;;;5104192;27;89715;-39
2023/03/30 09:35:40;;;;;;;;;;;5.40;66.00;;;;;;5102721;27;87113;-39
2023/03/30 09:38:10;;;;;;;;;;;5.50;66.10;;;;;;5101607;27;88614;-39
2023/03/30 09:41:06;;;;;;;;;;;5.50;66.10;;;;;;5104852;27;89375;-39
2023/03/30 09:43:42;;;;;;;;;;;5.40;66.20;;;;;;5098898;27;87915;-39
2023/03/30 09:46:08;;;;;;;;;;;5.50;66.30;;;;;;5102071;27;88928;-39
2023/03/30 09:48:41;;;;;;;;;;;5.40;66.30;;;;;;5107962;27;88803;-39
2023/03/30 09:51:15;;;;;;;;;;;5.30;66.90;;;;;;5104601;27;87194;-39
2023/03/30 09:53:43;;;;;;;;;;;5.20;67.20;;;;;;5101051;27;89384;-39
2023/03/30 09:56:15;;;;;;;;;;;5.20;67.40;;;;;;5104165;27;88214;-39
2023/03/30 09:58:41;;;;;;;;;;;5.20;67.60;;;;;;5105036;27;89723;-39
2023/03/30 10:01:11;;;;;;;;;;;5.40;67.20;;;;;;5104189;27;88441;-39
2023/03/30 10:03:37;;;;;;;;;;;5.40;67.10;;;;;;5100008;27;87089;-39
2023/03/30 10:06:03;;;;;;;;;;;5.40;67.30;;;;;;5104198;27;87775;-39
2023/03/30 10:08:28;;;;;;;;;;;5.30;67.40;;;;;;5103892;27;89339;-39
2023/03/30 10:10:55;;;;;;;;;;;5.30;67.50;;;;;;5107185;27;87292;-39
2023/03/30 10:13:26;;;;;;;;;;;5.40;67.40;;;;;;5103940;27;88548;-39
2023/03/30 10:15:52;;;;;;;;;;;5.30;67.80;;;;;;5104081;27;87085;-39
2023/03/30 10:18:23;;;;;;;;;;;5.30;68.10;;;;;;5104478;27;89078;-39
2023/03/30 10:21:02;;;;;;;;;;;5.30;68.20;;;;;;5103184;27;90202;-39
2023/03/30 10:23:33;;;;;;;;;;;5.30;68.10;;;;;;5103813;27;87249;-39
2023/03/30 10:26:02;;;;;;;;;;;5.40;68.00;;;;;;5103671;27;88652;-40
2023/03/30 10:28:29;;;;;;;;;;;5.50;67.70;;;;;;5104123;27;88054;-39
2023/03/30 10:30:59;;;;;;;;;;;5.30;68.10;;;;;;5104113;27;87000;-39
2023/03/30 10:33:27;;;;;;;;;;;5.30;68.40;;;;;;5106430;27;87652;-39
2023/03/30 10:35:55;;;;;;;;;;;5.30;68.20;;;;;;5103888;27;87020;-39
2023/03/30 10:38:21;;;;;;;;;;;5.40;68.20;;;;;;5104574;27;87903;-39
2023/03/30 10:40:49;;;;;;;;;;;5.50;67.90;;;;;;5103770;27;88082;-39
2023/03/30 10:43:21;;;;;;;;;;;5.40;68.30;;;;;;5103979;27;87176;-39
2023/03/30 10:45:47;;;;;;;;;;;5.40;68.10;;;;;;5103055;27;88849;-39
2023/03/30 10:48:16;;;;;;;;;;;5.50;68.10;;;;;;5103160;27;89894;-39
2023/03/30 10:50:59;;;;;;;;;;;5.60;67.90;;;;;;5103770;27;87143;-39
2023/03/30 10:53:40;;;;;;;;;;;5.60;67.80;;;;;;5100785;27;88829;-39
2023/03/30 10:56:22;;;;;;;;;;;5.60;67.70;;;;;;5105989;27;89458;-39
2023/03/30 10:59:05;;;;;;;;;;;5.70;67.80;;;;;;5103717;27;88650;-39
2023/03/30 11:01:34;;;;;;;;;;;5.60;68.30;;;;;;5101036;27;89588;-39
2023/03/30 11:04:02;;;;;;;;;;;5.70;68.10;;;;;;5103391;27;86425;-39
2023/03/30 11:06:33;;;;;;;;;;;5.60;68.70;;;;;;5103315;27;88348;-39
2023/03/30 11:09:00;;;;;;;;;;;5.50;68.90;;;;;;5103063;27;89213;-39
2023/03/30 11:11:38;;;;;;;;;;;5.60;68.70;;;;;;5102729;27;88040;-39
2023/03/30 11:14:06;;;;;;;;;;;5.70;68.40;;;;;;5099254;27;88403;-39
2023/03/30 11:16:34;;;;;;;;;;;5.70;68.50;;;;;;5103031;27;89464;-39
2023/03/30 11:19:04;;;;;;;;;;;5.80;68.60;;;;;;5106208;27;87152;-39
2023/03/30 11:21:36;;;;;;;;;;;5.70;68.70;;;;;;5102869;27;89371;-39
2023/03/30 11:24:13;;;;;;;;;;;5.80;68.60;;;;;;5100265;27;87080;-39
2023/03/30 11:26:50;;;;;;;;;;;5.80;68.80;;;;;;5102931;27;88738;-39
2023/03/30 11:29:16;;;;;;;;;;;5.70;69.20;;;;;;5101051;27;87257;-39
2023/03/30 11:31:45;;;;;;;;;;;5.70;69.50;;;;;;5103197;27;87052;-39
2023/03/30 11:34:23;;;;;;;;;;;5.80;69.00;;;;;;5103341;27;87537;-39
2023/03/30 11:36:54;;;;;;;;;;;5.90;68.80;;;;;;5099397;27;90266;-39
2023/03/30 11:39:22;;;;;;;;;;;5.90;68.70;;;;;;5102897;27;87223;-39
2023/03/30 11:41:51;;;;;;;;;;;6.00;68.60;;;;;;5101781;27;88026;-39
2023/03/30 11:44:17;;;;;;;;;;;6.00;68.60;;;;;;5102932;27;87029;-39
2023/03/30 11:46:43;;;;;;;;;;;6.00;68.70;;;;;;5102789;27;89283;-39
2023/03/30 11:49:15;;;;;;;;;;;6.00;68.60;;;;;;5102394;27;89467;-39
2023/03/30 11:51:48;;;;;;;;;;;6.00;68.50;;;;;;5102740;27;87627;-39
2023/03/30 11:54:29;;;;;;;;;;;6.00;68.70;;;;;;5103226;27;88838;-39
2023/03/30 11:57:06;;;;;;;;;;;6.10;68.60;;;;;;5098824;27;88910;-39
2023/03/30 11:59:37;;;;;;;;;;;6.10;68.90;;;;;;5102789;27;87373;-40
2023/03/30 12:02:26;;;;;;;;;;;6.00;69.50;;;;;;5100606;27;88088;-40
2023/03/30 12:04:58;;;;;;;;;;;5.90;69.70;;;;;;5065907;27;87159;-39
2023/03/30 12:07:44;;;;;;;;;;;5.90;70.00;;;;;;5102471;27;88561;-39
2023/03/30 12:10:13;;;;;;;;;;;5.90;70.00;;;;;;5067007;27;88024;-39
2023/03/30 12:12:40;;;;;;;;;;;6.00;69.90;;;;;;5106216;27;87026;-39
2023/03/30 12:15:08;;;;;;;;;;;6.10;69.70;;;;;;5105892;27;87381;-39
2023/03/30 12:17:38;;;;;;;;;;;6.10;69.70;;;;;;5105407;27;90118;-39
2023/03/30 12:20:10;;;;;;;;;;;6.10;69.70;;;;;;5106387;27;86950;-39
2023/03/30 12:22:48;;;;;;;;;;;6.20;69.40;;;;;;5106415;27;87257;-39
2023/03/30 12:25:20;;;;;;;;;;;6.20;69.60;;;;;;5097359;27;89513;-39
2023/03/30 12:27:58;;;;;;;;;;;6.20;69.80;;;;;;5101270;27;88862;-39
2023/03/30 12:30:26;;;;;;;;;;;6.20;69.90;;;;;;5098570;27;89727;-39
2023/03/30 12:33:02;;;;;;;;;;;6.20;70.00;;;;;;5106233;27;87140;-40
2023/03/30 12:35:46;;;;;;;;;;;6.20;69.80;;;;;;5102195;27;88039;-39
2023/03/30 12:38:15;;;;;;;;;;;6.30;69.80;;;;;;5105672;27;89468;-39
2023/03/30 12:40:45;;;;;;;;;;;6.30;70.00;;;;;;5102089;27;87106;-39
2023/03/30 12:43:13;;;;;;;;;;;6.30;70.20;;;;;;5105531;27;88834;-39
2023/03/30 12:46:00;;;;;;;;;;;6.20;70.40;;;;;;5106019;27;87377;-39
2023/03/30 12:48:45;;;;;;;;;;;6.20;70.40;;;;;;5104042;27;87070;-39
2023/03/30 12:51:31;;;;;;;;;;;6.30;70.50;;;;;;5102946;27;89676;-39
2023/03/30 12:54:20;;;;;;;;;;;6.30;70.60;;;;;;5092930;27;88249;-39
2023/03/30 12:57:04;;;;;;;;;;;6.40;70.30;;;;;;5069408;27;88619;-39
2023/03/30 12:59:42;;;;;;;;;;;6.40;70.30;;;;;;5101410;27;88118;-39
2023/03/30 13:02:14;;;;;;;;;;;6.40;70.00;;;;;;5105447;27;87148;-39
2023/03/30 13:04:42;;;;;;;;;;;6.50;69.90;;;;;;5102052;27;87694;-39
2023/03/30 13:07:14;;;;;;;;;;;6.50;69.80;;;;;;5105073;27;87860;-39
2023/03/30 13:09:59;;;;;;;;;;;6.50;69.60;;;;;;5105340;27;87096;-39
2023/03/30 13:12:34;;;;;;;;;;;6.60;69.60;;;;;;5102112;27;88439;-39
2023/03/30 13:15:05;;;;;;;;;;;6.60;69.50;;;;;;5101155;27;87390;-40
2023/03/30 13:17:54;;;;;;;;;;;6.60;69.60;;;;;;5105739;27;87029;-39
2023/03/30 13:20:26;;;;;;;;;;;6.70;69.60;;;;;;5073704;27;90280;-39
2023/03/30 13:22:58;;;;;;;;;;;6.70;69.60;;;;;;5105501;27;87095;-39
2023/03/30 13:25:25;;;;;;;;;;;6.70;69.50;;;;;;5101386;27;88704;-39
2023/03/30 13:27:55;;;;;;;;;;;6.70;69.40;;;;;;5104691;27;90438;-39
2023/03/30 13:30:23;;;;;;;;;;;6.70;69.40;;;;;;5105044;27;87138;-39
2023/03/30 13:32:48;;;;;;;;;;;6.70;69.70;;;;;;5104921;27;88744;-39
2023/03/30 13:35:14;;;;;;;;;;;6.80;69.50;;;;;;5107323;27;89165;-39
2023/03/30 13:37:39;;;;;;;;;;;6.80;69.70;;;;;;5105690;27;87417;-39
2023/03/30 13:40:20;;;;;;;;;;;6.80;69.90;;;;;;5104255;27;88110;-39
2023/03/30 13:43:05;;;;;;;;;;;6.80;69.90;;;;;;5100552;27;87201;-39
2023/03/30 13:45:39;;;;;;;;;;;6.80;69.90;;;;;;5099862;27;88373;-39
2023/03/30 13:48:14;;;;;;;;;;;6.80;70.00;;;;;;5101554;27;88347;-40
2023/03/30 13:50:44;;;;;;;;;;;6.70;70.20;;;;;;5104817;27;87600;-40
2023/03/30 13:53:10;;;;;;;;;;;6.80;70.40;;;;;;5101135;27;88862;-40
2023/03/30 13:55:43;;;;;;;;;;;6.80;70.30;;;;;;5104397;27;89672;-40
2023/03/30 13:58:20;;;;;;;;;;;6.90;70.40;;;;;;5107380;27;87027;-39
2023/03/30 14:01:03;;;;;;;;;;;6.90;70.30;;;;;;5101218;27;88143;-39
2023/03/30 14:03:48;;;;;;;;;;;6.90;70.30;;;;;;5101364;27;86332;-39
2023/03/30 14:06:14;;;;;;;;;;;6.90;70.50;;;;;;5104684;27;88079;-39
2023/03/30 14:08:41;;;;;;;;;;;6.90;70.70;;;;;;5103903;27;89681;-39
2023/03/30 14:11:10;;;;;;;;;;;7.00;70.90;;;;;;5103522;27;88553;-39
2023/03/30 14:13:36;;;;;;;;;;;7.00;70.90;;;;;;5104077;27;89675;-39
2023/03/30 14:16:02;;;;;;;;;;;7.00;70.90;;;;;;5104221;27;89045;-40
2023/03/30 14:18:27;;;;;;;;;;;7.00;71.00;;;;;;5107387;27;87114;-40
2023/03/30 14:20:57;;;;;;;;;;;7.10;71.20;;;;;;5103938;27;89157;-39
2023/03/30 14:23:29;;;;;;;;;;;7.10;71.30;;;;;;5103665;27;87486;-39
2023/03/30 14:25:58;;;;;;;;;;;7.20;71.20;;;;;;5103815;27;88801;-40
2023/03/30 14:28:25;;;;;;;;;;;7.20;71.10;;;;;;5104425;27;87967;-40
2023/03/30 14:30:52;;;;;;;;;;;7.20;71.10;;;;;;5103864;27;87112;-39
2023/03/30 14:33:17;;;;;;;;;;;7.20;71.10;;;;;;5103543;27;88689;-39
2023/03/30 14:35:45;;;;;;;;;;;7.30;71.20;;;;;;5103126;27;88372;-39
2023/03/30 14:38:36;;;;;;;;;;;7.30;70.80;;;;;;5104105;27;87361;-39
2023/03/30 14:41:05;;;;;;;;;;;7.40;70.90;;;;;;5101527;27;88774;-39
2023/03/30 14:43:31;;;;;;;;;;;7.40;71.00;;;;;;5099332;27;87471;-40